createdAt,value
2019-03-22T00:01:48.563Z,59.85
2019-03-22T00:04:24.656Z,57.25
2019-03-22T00:07:00.503Z,57.70
2019-03-22T00:09:36.368Z,59.50
2019-03-22T00:12:12.216Z,66.95
2019-03-22T00:14:48.081Z,74.97
2019-03-22T00:17:24.230Z,80.20
2019-03-22T00:20:00.455Z,87.47
2019-03-22T00:22:36.354Z,93.72
2019-03-22T00:25:12.201Z,88.52
2019-03-22T00:27:48.271Z,75.22
2019-03-22T00:30:24.331Z,66.67
2019-03-22T00:33:00.792Z,68.83
2019-03-22T00:35:36.678Z,66.40
2019-03-22T00:38:13.273Z,64.67
2019-03-22T00:40:48.995Z,61.68
2019-03-22T00:43:24.825Z,62.50
2019-03-22T00:46:00.939Z,58.20
2019-03-22T00:48:36.834Z,58.42
2019-03-22T00:51:12.582Z,59.18
2019-03-22T00:53:48.851Z,54.20
2019-03-22T00:56:24.708Z,53.42
2019-03-22T00:59:00.864Z,55.40
2019-03-22T01:01:36.719Z,50.63
2019-03-22T01:04:12.570Z,54.05
2019-03-22T01:06:48.429Z,53.98
2019-03-22T01:09:27.353Z,51.65
2019-03-22T01:12:03.622Z,51.77
2019-03-22T01:14:39.737Z,51.33
2019-03-22T01:17:15.636Z,51.70
2019-03-22T01:19:51.489Z,50.55
2019-03-22T01:22:27.342Z,50.40
2019-03-22T01:25:03.748Z,50.40
2019-03-22T01:27:41.085Z,48.30
2019-03-22T01:30:18.543Z,51.43
2019-03-22T01:32:54.339Z,49.05
2019-03-22T01:35:30.191Z,49.90
2019-03-22T01:38:05.912Z,49.35
2019-03-22T01:40:41.810Z,45.33
2019-03-22T01:43:17.651Z,47.40
2019-03-22T01:45:53.497Z,47.40
2019-03-22T01:48:29.364Z,46.45
2019-03-22T01:51:05.521Z,44.35
2019-03-22T01:53:41.388Z,46.35
2019-03-22T01:56:17.669Z,47.45
2019-03-22T01:58:53.504Z,46.70
2019-03-22T02:01:29.355Z,46.02
2019-03-22T02:04:05.409Z,46.37
2019-03-22T02:06:41.258Z,46.98
2019-03-22T02:09:17.114Z,48.55
2019-03-22T02:11:52.962Z,51.10
2019-03-22T02:14:28.831Z,46.20
2019-03-22T02:17:04.887Z,49.15
2019-03-22T02:19:40.728Z,48.13
2019-03-22T02:22:16.597Z,48.95
2019-03-22T02:24:52.335Z,50.50
2019-03-22T02:27:28.200Z,52.27
2019-03-22T02:30:06.543Z,50.54
2019-03-22T02:32:42.290Z,47.70
2019-03-22T02:35:28.487Z,48.30
2019-03-22T02:37:55.708Z,48.38
2019-03-22T02:40:31.867Z,44.85
2019-03-22T02:43:07.659Z,46.90
2019-03-22T02:45:43.573Z,48.98
2019-03-22T02:48:19.453Z,53.40
2019-03-22T02:50:56.315Z,49.93
2019-03-22T02:53:33.656Z,46.37
2019-03-22T02:56:09.642Z,47.45
2019-03-22T02:58:45.502Z,49.80
2019-03-22T03:01:21.574Z,49.95
2019-03-22T03:03:57.429Z,55.40
2019-03-22T03:06:33.277Z,65.97
2019-03-22T03:09:09.216Z,62.23
2019-03-22T03:11:45.080Z,57.35
2019-03-22T03:14:21.347Z,54.58
2019-03-22T03:16:57.105Z,57.60
2019-03-22T03:19:32.963Z,52.93
2019-03-22T03:22:09.522Z,51.98
2019-03-22T03:24:46.401Z,49.42
2019-03-22T03:27:22.261Z,49.93
2019-03-22T03:29:58.213Z,49.13
2019-03-22T03:32:34.101Z,48.33
2019-03-22T03:35:10.227Z,50.88
2019-03-22T03:37:46.351Z,48.30
2019-03-22T03:40:22.139Z,49.57
2019-03-22T03:42:58.414Z,49.90
2019-03-22T03:45:38.153Z,51.05
2019-03-22T03:48:14.021Z,53.90
2019-03-22T03:50:49.859Z,56.10
2019-03-22T03:53:25.707Z,55.58
2019-03-22T03:56:01.564Z,59.35
2019-03-22T03:58:51.755Z,55.48
2019-03-22T04:01:15.938Z,55.03
2019-03-22T04:03:51.985Z,56.45
2019-03-22T04:06:28.232Z,59.18
2019-03-22T04:09:05.641Z,61.18
2019-03-22T04:11:41.495Z,57.93
2019-03-22T04:14:17.368Z,52.80
2019-03-22T04:16:53.225Z,52.58
2019-03-22T04:19:29.575Z,54.00
2019-03-22T04:22:05.541Z,51.70
2019-03-22T04:24:41.384Z,51.20
2019-03-22T04:27:17.185Z,49.95
2019-03-22T04:29:52.995Z,50.75
2019-03-22T04:32:28.842Z,50.57
2019-03-22T04:35:08.600Z,52.08
2019-03-22T04:37:45.065Z,52.53
2019-03-22T04:40:28.250Z,50.73
2019-03-22T04:43:04.153Z,51.50
2019-03-22T04:45:41.638Z,52.03
2019-03-22T04:48:23.394Z,52.65
2019-03-22T04:50:59.785Z,51.18
2019-03-22T04:53:37.565Z,50.70
2019-03-22T04:56:14.894Z,51.70
2019-03-22T04:58:51.344Z,49.67
2019-03-22T05:01:28.856Z,50.75
2019-03-22T05:04:06.302Z,48.35
2019-03-22T05:06:43.827Z,50.17
2019-03-22T05:09:19.879Z,47.70
2019-03-22T05:11:56.458Z,48.92
2019-03-22T05:14:34.142Z,47.70
2019-03-22T05:17:10.817Z,47.65
2019-03-22T05:19:49.758Z,50.15
2019-03-22T05:22:27.144Z,48.48
2019-03-22T05:25:04.247Z,49.70
2019-03-22T05:27:41.302Z,49.67
2019-03-22T05:30:36.642Z,47.70
2019-03-22T05:33:12.471Z,48.83
2019-03-22T05:35:48.483Z,46.42
2019-03-22T05:38:25.613Z,48.92
2019-03-22T05:41:01.669Z,52.48
2019-03-22T05:43:37.930Z,51.58
2019-03-22T05:46:13.784Z,52.55
2019-03-22T05:48:49.643Z,52.13
2019-03-22T05:51:25.494Z,51.23
2019-03-22T05:54:01.547Z,53.30
2019-03-22T05:56:37.401Z,60.17
2019-03-22T05:59:13.265Z,76.75
2019-03-22T06:01:49.121Z,89.35
2019-03-22T06:04:37.720Z,83.87
2019-03-22T06:07:13.505Z,75.00
2019-03-22T06:09:49.459Z,74.97
2019-03-22T06:12:25.280Z,69.12
2019-03-22T06:15:01.740Z,77.40
2019-03-22T06:17:38.575Z,68.02
2019-03-22T06:20:14.895Z,58.77
2019-03-22T06:22:50.794Z,56.37
2019-03-22T06:25:26.651Z,54.90
2019-03-22T06:28:02.500Z,56.10
2019-03-22T06:30:38.366Z,56.15
2019-03-22T06:33:14.421Z,55.75
2019-03-22T06:35:50.262Z,56.20
2019-03-22T06:38:26.127Z,53.55
2019-03-22T06:41:01.871Z,54.70
2019-03-22T06:43:37.941Z,57.60
2019-03-22T06:46:13.800Z,63.00
2019-03-22T06:48:49.652Z,66.07
2019-03-22T06:51:25.457Z,67.32
2019-03-22T06:54:01.347Z,68.22
2019-03-22T06:56:37.206Z,68.20
2019-03-22T06:59:13.062Z,61.73
2019-03-22T07:01:48.915Z,63.60
2019-03-22T07:04:24.774Z,61.65
2019-03-22T07:07:01.802Z,61.00
2019-03-22T07:09:37.719Z,61.68
2019-03-22T07:12:13.562Z,62.40
2019-03-22T07:14:49.712Z,63.35
2019-03-22T07:17:25.552Z,64.90
2019-03-22T07:20:01.734Z,65.97
2019-03-22T07:22:37.586Z,68.02
2019-03-22T07:25:13.760Z,70.50
2019-03-22T07:27:50.600Z,74.80
2019-03-22T07:30:26.479Z,76.17
2019-03-22T07:33:02.338Z,77.70
2019-03-22T07:35:38.185Z,81.75
2019-03-22T07:38:14.041Z,78.20
2019-03-22T07:40:49.901Z,76.55
2019-03-22T07:43:26.368Z,76.37
2019-03-22T07:46:02.518Z,77.50
2019-03-22T07:48:38.387Z,74.47
2019-03-22T07:51:14.244Z,74.05
2019-03-22T07:53:50.128Z,74.55
2019-03-22T07:56:25.946Z,71.55
2019-03-22T07:59:02.070Z,72.20
2019-03-22T08:01:37.856Z,71.28
2019-03-22T08:04:14.015Z,70.75
2019-03-22T08:06:49.882Z,72.67
2019-03-22T08:09:25.928Z,71.92
2019-03-22T08:12:02.391Z,73.45
2019-03-22T08:14:38.260Z,71.35
2019-03-22T08:17:14.924Z,74.25
2019-03-22T08:19:50.681Z,71.07
2019-03-22T08:22:26.529Z,71.75
2019-03-22T08:25:02.483Z,72.30
2019-03-22T08:27:38.800Z,72.17
2019-03-22T08:30:14.615Z,72.63
2019-03-22T08:32:50.806Z,71.10
2019-03-22T08:35:26.610Z,72.40
2019-03-22T08:38:02.486Z,73.92
2019-03-22T08:40:38.362Z,76.20
2019-03-22T08:43:14.206Z,70.42
2019-03-22T08:45:50.079Z,74.70
2019-03-22T08:48:26.232Z,71.35
2019-03-22T08:51:02.162Z,73.05
2019-03-22T08:53:38.021Z,72.10
2019-03-22T08:56:13.863Z,73.92
2019-03-22T08:58:49.764Z,73.02
2019-03-22T09:01:25.886Z,70.25
2019-03-22T09:04:01.841Z,71.17
2019-03-22T09:06:37.687Z,67.53
2019-03-22T09:09:13.612Z,69.10
2019-03-22T09:11:49.565Z,68.72
2019-03-22T09:14:25.471Z,67.25
2019-03-22T09:17:01.336Z,64.35
2019-03-22T09:19:37.157Z,67.50
2019-03-22T09:22:13.019Z,65.92
2019-03-22T09:24:48.974Z,65.52
2019-03-22T09:27:24.929Z,59.58
2019-03-22T09:30:00.883Z,60.55
2019-03-22T09:32:36.652Z,54.73
2019-03-22T09:35:12.622Z,52.62
2019-03-22T09:37:48.444Z,63.33
2019-03-22T09:40:24.509Z,59.08
2019-03-22T09:43:00.368Z,54.48
2019-03-22T09:45:36.214Z,44.80
2019-03-22T09:48:12.444Z,45.88
2019-03-22T09:50:48.635Z,50.03
2019-03-22T09:53:24.514Z,38.48
2019-03-22T09:56:00.354Z,38.02
2019-03-22T09:58:36.357Z,39.88
2019-03-22T10:01:23.077Z,38.20
2019-03-22T10:03:49.767Z,37.45
2019-03-22T10:06:25.622Z,41.68
2019-03-22T10:09:05.328Z,39.25
2019-03-22T10:11:40.081Z,34.55
2019-03-22T10:14:15.924Z,33.92
2019-03-22T10:16:52.104Z,33.58
2019-03-22T10:19:27.864Z,33.02
2019-03-22T10:22:03.702Z,33.85
2019-03-22T10:24:40.619Z,29.95
2019-03-22T10:27:16.580Z,32.55
2019-03-22T10:29:52.503Z,34.63
2019-03-22T10:32:28.349Z,36.38
2019-03-22T10:35:05.041Z,36.60
2019-03-22T10:37:41.200Z,23.62
2019-03-22T10:40:18.201Z,24.27
2019-03-22T10:42:54.136Z,22.62
2019-03-22T10:45:30.570Z,25.32
2019-03-22T10:48:06.648Z,26.10
2019-03-22T10:50:42.505Z,23.15
2019-03-22T10:53:18.343Z,23.35
2019-03-22T10:55:54.468Z,23.83
2019-03-22T10:58:30.363Z,26.45
2019-03-22T11:01:08.298Z,27.20
2019-03-22T11:03:43.844Z,25.35
2019-03-22T11:06:26.127Z,26.65
2019-03-22T11:08:57.367Z,24.15
2019-03-22T11:11:33.218Z,23.92
2019-03-22T11:14:09.005Z,26.15
2019-03-22T11:16:44.960Z,25.08
2019-03-22T11:19:20.776Z,26.37
2019-03-22T11:21:56.563Z,26.30
2019-03-22T11:24:32.384Z,26.40
2019-03-22T11:27:08.240Z,27.55
2019-03-22T11:29:44.101Z,27.13
2019-03-22T11:32:20.074Z,25.30
2019-03-22T11:34:56.012Z,28.25
2019-03-22T11:37:32.169Z,27.90
2019-03-22T11:40:11.721Z,28.17
2019-03-22T11:42:47.564Z,27.45
2019-03-22T11:45:24.789Z,28.52
2019-03-22T11:48:00.963Z,28.45
2019-03-22T11:50:36.982Z,29.67
2019-03-22T11:53:12.927Z,31.30
2019-03-22T11:55:48.774Z,31.40
2019-03-22T11:58:24.895Z,29.40
2019-03-22T12:01:01.716Z,30.75
2019-03-22T12:03:37.566Z,32.73
2019-03-22T12:06:13.432Z,33.30
2019-03-22T12:08:49.435Z,34.00
2019-03-22T12:11:25.343Z,38.58
2019-03-22T12:14:01.301Z,30.97
2019-03-22T12:16:37.139Z,32.48
2019-03-22T12:19:13.100Z,37.33
2019-03-22T12:21:48.949Z,32.73
2019-03-22T12:24:24.802Z,29.60
2019-03-22T12:27:00.659Z,31.00
2019-03-22T12:29:36.514Z,31.62
2019-03-22T12:32:12.374Z,29.05
2019-03-22T12:34:48.242Z,29.42
2019-03-22T12:37:24.089Z,30.75
2019-03-22T12:39:59.929Z,30.57
2019-03-22T12:42:35.794Z,29.52
2019-03-22T12:45:18.803Z,30.17
2019-03-22T12:50:29.904Z,27.80
2019-03-22T12:53:05.756Z,30.17
2019-03-22T12:55:41.612Z,30.00
2019-03-22T12:58:17.469Z,29.05
2019-03-22T13:00:53.550Z,35.85
2019-03-22T13:03:29.384Z,33.90
2019-03-22T13:06:05.535Z,36.75
2019-03-22T13:08:41.704Z,48.13
2019-03-22T13:11:17.673Z,42.65
2019-03-22T13:13:53.522Z,33.88
2019-03-22T13:16:40.071Z,38.30
2019-03-22T13:19:16.618Z,34.03
2019-03-22T13:21:52.446Z,35.68
2019-03-22T13:24:28.286Z,33.92
2019-03-22T13:27:04.143Z,36.88
2019-03-22T13:29:40.001Z,33.70
2019-03-22T13:32:15.846Z,41.27
2019-03-22T13:34:51.711Z,36.40
2019-03-22T13:37:27.778Z,39.78
2019-03-22T13:40:05.368Z,40.92
2019-03-22T13:42:41.479Z,32.20
2019-03-22T13:45:17.793Z,31.25
2019-03-22T13:47:55.167Z,31.23
2019-03-22T13:50:32.057Z,33.47
2019-03-22T13:53:08.218Z,30.52
2019-03-22T13:55:44.059Z,31.12
2019-03-22T13:58:19.931Z,30.50
2019-03-22T14:00:55.879Z,31.85
2019-03-22T14:03:33.181Z,36.23
2019-03-22T14:06:09.130Z,32.73
2019-03-22T14:08:44.980Z,41.33
2019-03-22T14:11:20.932Z,45.43
2019-03-22T14:13:56.940Z,53.17
2019-03-22T14:16:33.058Z,35.92
2019-03-22T14:19:08.907Z,34.60
2019-03-22T14:21:44.771Z,40.35
2019-03-22T14:24:20.610Z,40.45
2019-03-22T14:26:56.628Z,37.67
2019-03-22T14:29:32.416Z,40.35
2019-03-22T14:32:08.588Z,34.67
2019-03-22T14:34:44.546Z,34.25
2019-03-22T14:37:20.391Z,37.33
2019-03-22T14:39:56.245Z,37.25
2019-03-22T14:42:32.266Z,35.20
2019-03-22T14:45:11.625Z,40.23
2019-03-22T14:47:47.993Z,40.95
2019-03-22T14:50:23.763Z,41.63
2019-03-22T14:52:59.924Z,44.50
2019-03-22T14:55:36.247Z,42.43
2019-03-22T14:58:12.134Z,39.27
2019-03-22T15:00:48.164Z,54.13
2019-03-22T15:03:27.939Z,69.12
2019-03-22T15:06:05.446Z,60.90
2019-03-22T15:08:41.292Z,62.83
2019-03-22T15:11:17.147Z,62.23
2019-03-22T15:14:00.469Z,61.80
2019-03-22T15:16:38.078Z,58.38
2019-03-22T15:19:15.679Z,56.25
2019-03-22T15:22:10.252Z,60.65
2019-03-22T15:25:03.827Z,82.95
2019-03-22T15:27:44.180Z,83.82
2019-03-22T15:30:38.276Z,59.83
2019-03-22T15:33:34.497Z,99.35
2019-03-22T15:38:53.571Z,79.50
2019-03-22T15:41:29.643Z,55.65
2019-03-22T15:44:06.150Z,57.13
2019-03-22T15:46:42.057Z,54.58
2019-03-22T15:49:17.909Z,51.95
2019-03-22T15:51:55.364Z,51.88
2019-03-22T15:54:33.050Z,52.50
2019-03-22T15:57:08.964Z,50.00
2019-03-22T15:59:45.022Z,40.80
2019-03-22T16:02:20.868Z,40.65
2019-03-22T16:04:56.822Z,51.48
2019-03-22T16:07:32.685Z,56.88
2019-03-22T16:10:09.815Z,51.68
2019-03-22T16:12:45.823Z,50.03
2019-03-22T16:15:21.679Z,38.50
2019-03-22T16:17:58.210Z,37.03
2019-03-22T16:20:34.113Z,37.48
2019-03-22T16:23:09.961Z,34.38
2019-03-22T16:25:45.815Z,56.83
2019-03-22T16:28:21.882Z,34.73
2019-03-22T16:30:58.034Z,28.60
2019-03-22T16:33:34.156Z,31.40
2019-03-22T16:36:10.151Z,31.97
2019-03-22T16:38:46.318Z,65.28
2019-03-22T16:41:22.168Z,56.53
2019-03-22T16:43:58.379Z,77.42
2019-03-22T16:46:34.187Z,55.28
2019-03-22T16:49:10.143Z,40.75
2019-03-22T16:51:46.026Z,33.90
2019-03-22T16:54:21.837Z,36.33
2019-03-22T16:56:58.008Z,39.85
2019-03-22T16:59:33.857Z,40.88
2019-03-22T17:02:09.673Z,42.05
2019-03-22T17:04:45.425Z,43.65
2019-03-22T17:07:21.346Z,48.35
2019-03-22T17:09:57.115Z,49.50
2019-03-22T17:12:32.891Z,52.00
2019-03-22T17:15:08.957Z,43.63
2019-03-22T17:17:44.761Z,43.85
2019-03-22T17:20:20.543Z,48.30
2019-03-22T17:22:56.384Z,45.63
2019-03-22T17:25:32.155Z,45.78
2019-03-22T17:28:08.083Z,41.00
2019-03-22T17:30:43.833Z,51.35
2019-03-22T17:33:19.820Z,63.60
2019-03-22T17:35:55.632Z,70.50
2019-03-22T17:38:31.634Z,74.85
2019-03-22T17:41:07.691Z,57.45
2019-03-22T17:43:43.656Z,80.20
2019-03-22T17:46:19.522Z,71.10
2019-03-22T17:48:55.338Z,64.35
2019-03-22T17:51:31.136Z,85.90
2019-03-22T17:54:07.035Z,121.15
2019-03-22T17:56:42.822Z,115.35
2019-03-22T17:59:19.741Z,111.60
2019-03-22T18:01:55.526Z,119.20
2019-03-22T18:04:31.319Z,126.87
2019-03-22T18:07:07.272Z,125.85
2019-03-22T18:09:43.420Z,123.33
2019-03-22T18:12:19.157Z,84.52
2019-03-22T18:14:54.946Z,65.50
2019-03-22T18:17:30.819Z,60.12
2019-03-22T18:20:12.028Z,48.98
2019-03-22T18:22:48.091Z,53.05
2019-03-22T18:25:24.868Z,59.27
2019-03-22T18:28:00.776Z,134.40
2019-03-22T18:30:36.578Z,96.67
2019-03-22T18:33:12.530Z,87.40
2019-03-22T18:35:48.337Z,98.87
2019-03-22T18:38:24.116Z,98.65
2019-03-22T18:40:59.954Z,91.97
2019-03-22T18:43:35.768Z,78.52
2019-03-22T18:46:11.541Z,89.55
2019-03-22T18:48:47.331Z,108.57
2019-03-22T18:51:23.340Z,112.22
2019-03-22T18:53:59.107Z,115.72
2019-03-22T18:56:35.109Z,103.42
2019-03-22T18:59:11.127Z,119.25
2019-03-22T19:01:47.000Z,83.80
2019-03-22T19:04:22.844Z,87.20
2019-03-22T19:06:58.792Z,243.78
2019-03-22T19:09:34.623Z,211.85
2019-03-22T19:12:10.802Z,152.87
2019-03-22T19:14:46.871Z,111.68
2019-03-22T19:17:22.719Z,127.92
2019-03-22T19:19:58.578Z,113.40
2019-03-22T19:22:34.532Z,93.60
2019-03-22T19:25:10.791Z,82.00
2019-03-22T19:27:46.754Z,81.20
2019-03-22T19:30:22.499Z,78.57
2019-03-22T19:32:58.515Z,72.87
2019-03-22T19:35:34.311Z,69.77
2019-03-22T19:38:10.267Z,59.48
2019-03-22T19:40:46.128Z,59.80
2019-03-22T19:43:22.298Z,61.88
2019-03-22T19:45:58.145Z,59.45
2019-03-22T19:48:33.989Z,49.70
2019-03-22T19:51:10.065Z,58.90
2019-03-22T19:53:45.910Z,56.75
2019-03-22T19:56:22.163Z,56.13
2019-03-22T19:58:58.030Z,54.13
2019-03-22T20:01:33.985Z,53.15
2019-03-22T20:04:09.828Z,56.53
2019-03-22T20:06:45.688Z,153.78
2019-03-22T20:09:21.549Z,158.97
2019-03-22T20:11:57.595Z,95.10
2019-03-22T20:14:33.448Z,67.80
2019-03-22T20:17:09.309Z,101.72
2019-03-22T20:19:45.423Z,118.97
2019-03-22T20:22:21.215Z,107.50
2019-03-22T20:24:57.175Z,101.33
2019-03-22T20:27:33.126Z,105.50
2019-03-22T20:30:16.401Z,109.10
2019-03-22T20:32:52.208Z,107.35
2019-03-22T20:35:28.059Z,134.52
2019-03-22T20:38:05.144Z,103.20
2019-03-22T20:40:41.008Z,62.58
2019-03-22T20:43:17.985Z,55.63
2019-03-22T20:45:53.868Z,50.25
2019-03-22T20:48:29.739Z,50.65
2019-03-22T20:51:05.552Z,51.30
2019-03-22T20:53:41.360Z,52.62
2019-03-22T20:56:17.253Z,67.15
2019-03-22T20:58:53.334Z,56.92
2019-03-22T21:01:29.088Z,72.10
2019-03-22T21:04:04.844Z,73.00
2019-03-22T21:06:40.911Z,72.27
2019-03-22T21:09:16.692Z,71.47
2019-03-22T21:11:52.804Z,76.85
2019-03-22T21:14:30.764Z,68.07
2019-03-22T21:17:06.033Z,60.08
2019-03-22T21:19:41.796Z,60.03
2019-03-22T21:22:17.891Z,60.65
2019-03-22T21:24:53.640Z,66.65
2019-03-22T21:27:29.412Z,65.28
2019-03-22T21:30:13.010Z,70.28
2019-03-22T21:32:48.803Z,70.05
2019-03-22T21:35:24.579Z,109.07
2019-03-22T21:38:10.464Z,161.20
2019-03-22T21:40:38.034Z,76.75
2019-03-22T21:43:13.851Z,64.55
2019-03-22T21:45:49.639Z,57.70
2019-03-22T21:48:25.791Z,49.23
2019-03-22T21:51:01.598Z,46.28
2019-03-22T21:53:37.617Z,47.03
2019-03-22T21:56:13.476Z,41.50
2019-03-22T21:58:49.316Z,37.78
2019-03-22T22:01:25.287Z,38.33
2019-03-22T22:04:01.145Z,41.37
2019-03-22T22:06:36.891Z,43.35
2019-03-22T22:09:12.901Z,45.75
2019-03-22T22:11:48.699Z,52.50
2019-03-22T22:14:24.554Z,53.98
2019-03-22T22:17:00.392Z,54.67
2019-03-22T22:19:36.568Z,54.35
2019-03-22T22:22:12.576Z,52.93
2019-03-22T22:24:48.483Z,52.43
2019-03-22T22:27:24.330Z,51.90
2019-03-22T22:30:00.335Z,52.73
2019-03-22T22:32:37.067Z,54.13
2019-03-22T22:35:12.914Z,53.48
2019-03-22T22:37:48.771Z,54.25
2019-03-22T22:40:24.621Z,51.83
2019-03-22T22:43:00.480Z,51.60
2019-03-22T22:45:36.632Z,51.65
2019-03-22T22:48:12.699Z,54.77
2019-03-22T22:50:48.915Z,53.80
2019-03-22T22:53:24.816Z,57.95
2019-03-22T22:56:00.677Z,56.80
2019-03-22T22:58:37.032Z,48.75
2019-03-22T23:01:13.029Z,51.00
2019-03-22T23:03:48.850Z,48.68
2019-03-22T23:06:24.629Z,45.65
2019-03-22T23:09:00.817Z,42.95
2019-03-22T23:11:38.253Z,45.43
2019-03-22T23:14:15.020Z,44.05
2019-03-22T23:16:50.875Z,40.35
2019-03-22T23:19:27.198Z,42.58
2019-03-22T23:22:02.994Z,49.35
2019-03-22T23:24:38.786Z,41.28
2019-03-22T23:27:15.734Z,45.48
2019-03-22T23:29:51.586Z,44.53
2019-03-22T23:32:27.536Z,46.55
2019-03-22T23:35:04.169Z,43.80
2019-03-22T23:37:40.074Z,46.55
2019-03-22T23:40:15.920Z,49.63
2019-03-22T23:42:51.875Z,57.40
2019-03-22T23:45:28.307Z,57.35
2019-03-22T23:48:04.195Z,60.10
2019-03-22T23:50:40.049Z,52.78
2019-03-22T23:53:15.899Z,52.15
2019-03-22T23:55:51.955Z,48.58
2019-03-22T23:58:27.820Z,46.73
